Time;durP1;ratioP1;P1;durP2;ratioP2;P2;SDS_P1;SDS_P2;PMS_P1;PMS_P2;Temp;Humidity;BMP_temperature;BMP_pressure;BME280_temperature;BME280_humidity;BME280_pressure;Samples;Min_cycle;Max_cycle;Signal;HPM_P1;HPM_P2
2021/05/14 00:01:08;;;;;;;9.57;3.72;;;14.70;99.90;;;;;;4993841;28;20084;-76
2021/05/14 00:03:33;;;;;;;7.85;2.92;;;14.70;99.90;;;;;;5007407;28;20483;-77
2021/05/14 00:05:59;;;;;;;5.57;2.60;;;14.60;99.90;;;;;;5007695;28;20026;-77
2021/05/14 00:08:25;;;;;;;5.45;2.80;;;14.60;99.90;;;;;;5005086;28;20038;-77
2021/05/14 00:10:51;;;;;;;7.68;2.67;;;14.50;99.90;;;;;;4994574;28;20038;-77
2021/05/14 00:13:18;;;;;;;3.83;2.20;;;14.40;99.90;;;;;;4992080;28;20113;-78
2021/05/14 00:15:44;;;;;;;7.43;2.67;;;14.40;99.90;;;;;;5009690;28;20663;-77
2021/05/14 00:18:09;;;;;;;7.88;2.97;;;14.40;99.90;;;;;;5013101;28;20030;-78
2021/05/14 00:20:35;;;;;;;8.27;2.90;;;14.50;99.90;;;;;;5011316;28;20377;-77
2021/05/14 00:23:01;;;;;;;13.95;3.33;;;14.50;99.90;;;;;;4977170;28;20038;-77
2021/05/14 00:25:27;;;;;;;5.45;2.90;;;14.40;99.90;;;;;;5012093;28;20033;-77
2021/05/14 00:27:52;;;;;;;9.50;2.63;;;14.30;99.90;;;;;;5010784;28;20037;-78
2021/05/14 00:30:19;;;;;;;3.42;2.42;;;14.40;99.90;;;;;;5010297;28;20044;-77
2021/05/14 00:32:44;;;;;;;8.60;3.05;;;14.30;99.90;;;;;;5013903;28;20392;-77
2021/05/14 00:35:11;;;;;;;10.35;2.78;;;14.30;99.90;;;;;;5012439;28;20032;-78
2021/05/14 00:37:36;;;;;;;7.25;3.63;;;14.40;99.90;;;;;;5013670;28;20014;-78
2021/05/14 00:40:04;;;;;;;7.43;2.58;;;14.40;99.90;;;;;;5006653;28;20109;-77
2021/05/14 00:42:30;;;;;;;6.80;3.67;;;14.50;99.90;;;;;;5006171;28;20018;-78
2021/05/14 00:44:56;;;;;;;7.13;2.95;;;14.50;99.90;;;;;;5009164;28;20526;-78
2021/05/14 00:47:21;;;;;;;5.57;3.53;;;14.60;99.90;;;;;;5011138;28;20512;-79
2021/05/14 00:49:48;;;;;;;7.47;2.88;;;14.50;99.90;;;;;;5011304;28;20030;-78
2021/05/14 00:52:16;;;;;;;3.13;2.72;;;14.60;99.90;;;;;;4987703;28;20092;-79
2021/05/14 00:54:44;;;;;;;6.32;2.92;;;14.60;99.90;;;;;;5010202;28;20029;-78
2021/05/14 00:57:12;;;;;;;9.05;2.95;;;14.60;99.90;;;;;;4991487;28;20029;-78
2021/05/14 00:59:38;;;;;;;5.07;3.03;;;14.60;99.90;;;;;;5005132;28;20026;-79
2021/05/14 01:02:05;;;;;;;8.48;3.20;;;14.60;99.90;;;;;;5006831;28;20058;-77
2021/05/14 01:04:31;;;;;;;5.28;2.13;;;14.70;99.90;;;;;;5011039;28;20038;-78
2021/05/14 01:06:57;;;;;;;4.70;2.97;;;14.70;99.90;;;;;;5008997;28;20526;-77
2021/05/14 01:09:22;;;;;;;6.85;3.63;;;14.80;99.90;;;;;;5009591;28;20475;-78
2021/05/14 01:11:48;;;;;;;4.88;2.55;;;14.90;99.90;;;;;;4994012;28;20052;-78
2021/05/14 01:14:14;;;;;;;5.15;2.88;;;14.90;99.90;;;;;;4994100;28;20022;-78
2021/05/14 01:16:40;;;;;;;5.30;3.00;;;14.80;99.90;;;;;;5010450;28;20030;-78
2021/05/14 01:19:06;;;;;;;5.47;3.28;;;14.80;99.90;;;;;;4992914;28;20034;-78
2021/05/14 01:21:32;;;;;;;3.78;2.78;;;14.80;99.90;;;;;;5008170;28;20022;-78
2021/05/14 01:23:58;;;;;;;9.05;3.05;;;14.80;99.90;;;;;;5007224;28;20488;-78
2021/05/14 01:26:26;;;;;;;6.18;3.53;;;14.70;99.90;;;;;;4993483;28;20120;-78
2021/05/14 01:28:52;;;;;;;7.07;3.38;;;14.80;99.90;;;;;;5011114;28;20036;-77
2021/05/14 01:31:19;;;;;;;6.35;3.83;;;14.80;99.90;;;;;;4993390;28;20072;-78
2021/05/14 01:33:46;;;;;;;4.55;3.10;;;14.70;99.90;;;;;;4985467;28;20034;-78
2021/05/14 01:36:12;;;;;;;7.32;3.25;;;14.60;99.90;;;;;;5008921;28;20392;-77
2021/05/14 01:38:38;;;;;;;5.38;2.92;;;14.50;99.90;;;;;;4993611;28;20029;-77
2021/05/14 01:41:04;;;;;;;6.75;2.47;;;14.60;99.90;;;;;;5011140;28;20040;-77
2021/05/14 01:43:30;;;;;;;5.03;3.13;;;14.50;99.90;;;;;;5010506;28;20049;-77
2021/05/14 01:45:56;;;;;;;3.70;2.60;;;14.60;99.90;;;;;;5004865;28;20030;-77
2021/05/14 01:48:21;;;;;;;6.10;2.60;;;14.60;99.90;;;;;;5008932;28;20084;-77
2021/05/14 01:50:47;;;;;;;5.60;3.00;;;14.80;99.90;;;;;;4991163;28;20030;-77
2021/05/14 01:53:14;;;;;;;5.32;2.80;;;14.80;99.90;;;;;;5007708;28;20461;-77
2021/05/14 01:55:40;;;;;;;5.03;2.88;;;14.80;99.90;;;;;;4991637;28;20050;-78
2021/05/14 01:58:07;;;;;;;6.53;3.53;;;14.90;99.90;;;;;;4991182;28;20030;-77
2021/05/14 02:00:33;;;;;;;9.13;4.07;;;14.90;99.90;;;;;;5005267;28;20026;-77
2021/05/14 02:02:59;;;;;;;11.10;3.35;;;14.90;99.90;;;;;;5010505;28;20032;-78
2021/05/14 02:05:25;;;;;;;4.93;3.00;;;14.90;99.90;;;;;;4991729;28;20022;-78
2021/05/14 02:07:52;;;;;;;4.10;2.65;;;14.90;99.90;;;;;;5014563;28;20104;-78
2021/05/14 02:10:18;;;;;;;7.95;3.00;;;14.90;99.90;;;;;;5010893;28;20030;-78
2021/05/14 02:12:44;;;;;;;7.82;2.92;;;14.80;99.90;;;;;;4993980;28;20018;-78
2021/05/14 02:15:11;;;;;;;10.23;4.43;;;14.80;99.90;;;;;;4993402;28;20071;-78
2021/05/14 02:17:37;;;;;;;7.15;3.47;;;14.80;99.90;;;;;;5007417;28;20057;-77
2021/05/14 02:20:06;;;;;;;5.05;3.75;;;14.80;99.90;;;;;;5012194;28;20026;-77
2021/05/14 02:22:33;;;;;;;7.50;2.83;;;14.80;99.90;;;;;;5013841;28;20026;-78
2021/05/14 02:24:59;;;;;;;9.35;4.25;;;14.70;99.90;;;;;;4994588;28;20030;-78
2021/05/14 02:27:25;;;;;;;8.55;4.97;;;14.70;99.90;;;;;;5013992;28;20310;-79
2021/05/14 02:29:51;;;;;;;6.70;4.70;;;14.70;99.90;;;;;;4994732;28;20034;-78
2021/05/14 02:32:17;;;;;;;8.50;3.83;;;14.70;99.90;;;;;;5011207;28;20109;-79
2021/05/14 02:34:43;;;;;;;6.13;4.45;;;14.70;99.90;;;;;;5013766;28;20045;-76
2021/05/14 02:37:09;;;;;;;11.93;3.45;;;14.70;99.90;;;;;;5002516;28;20109;-78
2021/05/14 02:39:35;;;;;;;5.38;3.00;;;14.80;99.90;;;;;;5013313;28;20021;-77
2021/05/14 02:42:01;;;;;;;7.43;3.00;;;14.80;99.90;;;;;;5008441;28;20065;-77
2021/05/14 02:44:27;;;;;;;4.43;2.40;;;14.80;99.90;;;;;;5013956;28;20101;-77
2021/05/14 02:46:53;;;;;;;8.38;2.63;;;14.70;99.90;;;;;;4996129;28;20113;-76
2021/05/14 02:49:19;;;;;;;4.53;3.20;;;14.70;99.90;;;;;;5011593;28;20096;-78
2021/05/14 02:51:45;;;;;;;8.27;3.22;;;14.70;99.90;;;;;;5012260;28;20615;-77
2021/05/14 02:54:10;;;;;;;6.35;3.83;;;14.70;99.90;;;;;;5011882;28;20468;-77
2021/05/14 02:56:36;;;;;;;6.28;3.33;;;14.80;99.90;;;;;;5011897;28;20029;-78
2021/05/14 02:59:03;;;;;;;4.60;3.53;;;14.70;99.90;;;;;;5010874;28;20475;-77
2021/05/14 03:01:28;;;;;;;8.88;3.20;;;14.80;99.90;;;;;;4994467;28;20026;-78
2021/05/14 03:03:54;;;;;;;4.40;3.25;;;14.70;99.90;;;;;;5012418;28;20028;-78
2021/05/14 03:06:21;;;;;;;7.25;3.05;;;14.70;99.90;;;;;;5009314;28;20018;-78
2021/05/14 03:08:46;;;;;;;10.32;3.58;;;14.70;99.90;;;;;;5012224;28;20123;-78
2021/05/14 03:11:12;;;;;;;5.63;3.13;;;14.70;99.90;;;;;;4990698;28;20456;-78
2021/05/14 03:13:38;;;;;;;9.43;3.30;;;14.60;99.90;;;;;;5009067;28;20025;-78
2021/05/14 03:16:04;;;;;;;8.73;3.75;;;14.60;99.90;;;;;;4994527;28;20482;-78
2021/05/14 03:18:30;;;;;;;9.20;3.90;;;14.50;99.90;;;;;;5005566;28;20388;-77
2021/05/14 03:20:56;;;;;;;5.45;2.97;;;14.60;99.90;;;;;;5012192;28;20029;-78
2021/05/14 03:23:22;;;;;;;6.93;2.92;;;14.60;99.90;;;;;;5013280;28;20030;-78
2021/05/14 03:25:48;;;;;;;7.03;3.63;;;14.60;99.90;;;;;;5011111;28;20026;-79
2021/05/14 03:28:15;;;;;;;6.68;3.08;;;14.60;99.90;;;;;;5011747;28;20022;-78
2021/05/14 03:30:41;;;;;;;4.22;2.97;;;14.70;99.90;;;;;;4994463;28;20030;-78
2021/05/14 03:33:07;;;;;;;4.80;2.70;;;14.70;99.90;;;;;;5004573;28;20034;-78
2021/05/14 03:35:33;;;;;;;5.05;2.65;;;14.80;99.90;;;;;;5012841;28;20100;-78
2021/05/14 03:37:59;;;;;;;7.85;3.25;;;14.70;99.90;;;;;;4987848;28;20026;-78
2021/05/14 03:42:58;;;;;;;9.10;4.32;;;14.80;99.90;;;;;;5011543;28;20510;-78
2021/05/14 03:45:24;;;;;;;7.40;4.72;;;14.70;99.90;;;;;;4987943;28;20393;-78
2021/05/14 03:47:49;;;;;;;7.00;4.30;;;14.70;99.90;;;;;;4995506;28;20030;-77
2021/05/14 03:50:16;;;;;;;7.65;3.97;;;14.60;99.90;;;;;;5008595;28;20030;-77
2021/05/14 03:52:43;;;;;;;9.15;4.93;;;14.60;99.90;;;;;;4994676;28;20034;-77
2021/05/14 03:55:09;;;;;;;6.40;3.90;;;14.60;99.90;;;;;;5008129;28;20022;-77
2021/05/14 03:57:35;;;;;;;13.55;4.72;;;14.50;99.90;;;;;;5004390;28;20022;-77
2021/05/14 04:00:01;;;;;;;8.23;4.18;;;14.40;99.90;;;;;;5007056;28;20083;-78
2021/05/14 04:02:27;;;;;;;11.23;4.63;;;14.30;99.90;;;;;;5012064;28;20033;-78
2021/05/14 04:04:53;;;;;;;6.68;3.53;;;14.30;99.90;;;;;;5012324;28;20033;-77
2021/05/14 04:07:20;;;;;;;14.65;4.32;;;14.30;99.90;;;;;;5011403;28;20167;-77
2021/05/14 04:09:52;;;;;;;12.98;5.13;;;14.30;99.90;;;;;;5008418;28;20026;-78
2021/05/14 04:15:02;;;;;;;15.48;4.75;;;14.20;99.90;;;;;;5010377;28;20569;-76
2021/05/14 04:17:28;;;;;;;14.02;4.93;;;14.10;99.90;;;;;;5011066;28;20033;-78
2021/05/14 04:19:54;;;;;;;10.88;4.95;;;14.00;99.90;;;;;;5010038;28;20041;-77
2021/05/14 04:22:19;;;;;;;12.55;4.65;;;14.00;99.90;;;;;;4994209;28;20026;-77
2021/05/14 04:24:45;;;;;;;7.18;4.22;;;14.00;99.90;;;;;;4991108;28;20044;-77
2021/05/14 04:27:14;;;;;;;13.13;4.60;;;13.90;99.90;;;;;;4992853;28;20117;-77
2021/05/14 04:29:39;;;;;;;12.20;4.25;;;13.90;99.90;;;;;;4993538;28;20028;-78
2021/05/14 04:32:05;;;;;;;10.90;4.85;;;13.90;99.90;;;;;;5010215;28;20121;-78
2021/05/14 04:34:31;;;;;;;11.93;4.28;;;14.00;99.90;;;;;;4991062;28;20033;-78
2021/05/14 04:36:57;;;;;;;13.10;5.93;;;13.90;99.90;;;;;;5009698;28;20030;-78
2021/05/14 04:39:23;;;;;;;16.42;7.32;;;13.80;99.90;;;;;;5007296;28;20503;-78
2021/05/14 04:41:48;;;;;;;14.20;6.57;;;13.80;99.90;;;;;;4993859;28;20025;-77
2021/05/14 04:44:15;;;;;;;8.38;5.63;;;13.80;99.90;;;;;;5012109;28;20033;-77
2021/05/14 04:46:42;;;;;;;8.27;5.03;;;13.90;99.90;;;;;;5013390;28;20034;-77
2021/05/14 04:49:08;;;;;;;16.73;6.38;;;13.90;99.90;;;;;;4994819;28;20022;-78
2021/05/14 04:51:33;;;;;;;8.30;5.60;;;13.90;99.90;;;;;;4994372;28;20523;-78
2021/05/14 04:54:00;;;;;;;9.50;5.80;;;14.00;99.90;;;;;;5008209;28;20544;-77
2021/05/14 04:56:26;;;;;;;13.68;5.82;;;14.00;99.90;;;;;;5012025;28;20476;-77
2021/05/14 04:58:51;;;;;;;11.43;5.75;;;13.90;99.90;;;;;;4994195;28;20037;-77
2021/05/14 05:01:18;;;;;;;19.25;6.45;;;14.00;99.90;;;;;;4994655;28;20631;-79
2021/05/14 05:03:54;;;;;;;10.05;5.80;;;14.00;99.90;;;;;;5014174;28;20029;-79
2021/05/14 05:06:20;;;;;;;11.10;5.82;;;14.00;99.90;;;;;;4994473;28;20516;-77
2021/05/14 05:08:47;;;;;;;11.80;8.82;;;14.00;99.90;;;;;;5010667;28;20041;-78
2021/05/14 05:11:13;;;;;;;12.13;6.20;;;14.00;99.90;;;;;;4993745;28;20537;-77
2021/05/14 05:13:38;;;;;;;14.23;8.27;;;14.00;99.90;;;;;;4993143;28;20022;-77
2021/05/14 05:16:04;;;;;;;13.90;7.60;;;14.10;99.90;;;;;;4993341;28;20021;-77
2021/05/14 05:18:30;;;;;;;10.18;7.47;;;14.10;99.90;;;;;;5009864;28;20089;-78
2021/05/14 05:20:56;;;;;;;14.23;7.78;;;14.10;99.90;;;;;;5014139;28;20049;-78
2021/05/14 05:23:22;;;;;;;12.38;7.28;;;14.10;99.90;;;;;;4992005;28;20029;-78
2021/05/14 05:25:48;;;;;;;10.77;6.13;;;14.10;99.90;;;;;;5006715;28;20507;-77
2021/05/14 05:28:19;;;;;;;11.90;5.93;;;14.00;99.90;;;;;;4990167;28;20147;-78
2021/05/14 05:30:45;;;;;;;12.57;6.05;;;14.00;99.90;;;;;;5007007;28;20044;-78
2021/05/14 05:33:10;;;;;;;11.68;6.72;;;14.00;99.90;;;;;;5010125;28;20049;-77
2021/05/14 05:35:36;;;;;;;15.40;7.70;;;14.00;99.90;;;;;;5009346;28;20026;-77
2021/05/14 05:38:02;;;;;;;14.73;7.70;;;13.90;99.90;;;;;;4988752;28;20030;-77
2021/05/14 05:40:28;;;;;;;11.52;6.80;;;13.80;99.90;;;;;;5004626;28;20030;-77
2021/05/14 05:42:53;;;;;;;12.05;7.35;;;13.70;99.90;;;;;;4989711;28;20026;-77
2021/05/14 05:45:19;;;;;;;13.30;10.27;;;13.70;99.90;;;;;;5007247;28;20030;-78
2021/05/14 05:47:45;;;;;;;10.98;8.23;;;13.70;99.90;;;;;;5009426;28;20030;-77
2021/05/14 05:50:11;;;;;;;17.45;9.25;;;13.70;99.90;;;;;;5008987;28;20029;-78
2021/05/14 05:52:36;;;;;;;11.20;8.60;;;13.70;99.90;;;;;;5014473;28;20088;-77
2021/05/14 05:55:03;;;;;;;12.35;7.47;;;13.80;99.90;;;;;;4996267;28;20030;-77
2021/05/14 05:57:29;;;;;;;8.80;6.93;;;13.80;99.90;;;;;;5012222;28;20129;-78
2021/05/14 05:59:54;;;;;;;12.27;9.32;;;13.90;99.90;;;;;;5008794;28;20527;-78
2021/05/14 06:02:20;;;;;;;15.10;7.82;;;14.00;99.90;;;;;;4992129;28;20025;-77
2021/05/14 06:04:46;;;;;;;8.80;5.85;;;14.00;99.90;;;;;;5002609;28;20448;-78
2021/05/14 06:07:12;;;;;;;13.20;6.38;;;14.10;99.90;;;;;;4991289;28;20026;-78
2021/05/14 06:09:38;;;;;;;8.93;6.07;;;14.10;99.90;;;;;;5009924;28;20030;-77
2021/05/14 06:12:04;;;;;;;11.95;5.65;;;14.10;99.90;;;;;;4992982;28;20034;-76
2021/05/14 06:14:29;;;;;;;10.52;5.20;;;14.10;99.90;;;;;;5012773;28;20101;-77
2021/05/14 06:16:55;;;;;;;3.88;3.10;;;14.20;99.90;;;;;;5004051;28;20049;-78
2021/05/14 06:19:32;;;;;;;6.95;4.25;;;14.10;99.90;;;;;;4990794;28;20033;-77
2021/05/14 06:21:58;;;;;;;10.38;4.60;;;14.20;99.90;;;;;;4991870;28;20116;-77
2021/05/14 06:24:24;;;;;;;13.70;4.72;;;14.30;99.90;;;;;;4992790;28;20565;-77
2021/05/14 06:27:05;;;;;;;9.48;3.97;;;14.20;99.90;;;;;;4992433;28;20530;-77
2021/05/14 06:29:31;;;;;;;8.25;2.85;;;14.20;99.90;;;;;;4998842;28;20037;-70
2021/05/14 06:31:57;;;;;;;5.25;3.53;;;14.20;99.90;;;;;;4992851;28;20409;-71
2021/05/14 06:34:23;;;;;;;4.90;2.33;;;14.30;99.90;;;;;;5008822;28;20047;-72
2021/05/14 06:36:49;;;;;;;5.35;3.80;;;14.30;99.90;;;;;;5009253;28;20034;-72
2021/05/14 06:39:14;;;;;;;4.15;3.13;;;14.30;99.90;;;;;;4992627;28;20038;-71
2021/05/14 06:41:40;;;;;;;4.82;2.85;;;14.20;99.90;;;;;;5008837;28;20109;-72
2021/05/14 06:44:06;;;;;;;4.07;3.22;;;14.10;99.90;;;;;;5009265;28;20033;-72
2021/05/14 06:46:32;;;;;;;4.78;2.97;;;14.30;99.90;;;;;;4990246;28;20048;-72
2021/05/14 06:48:58;;;;;;;3.33;2.42;;;14.50;99.90;;;;;;5004353;28;20030;-71
2021/05/14 06:51:24;;;;;;;2.53;2.08;;;14.40;99.90;;;;;;4984942;28;20056;-72
2021/05/14 06:53:51;;;;;;;2.67;2.15;;;14.50;99.90;;;;;;4984911;28;20037;-73
2021/05/14 06:56:17;;;;;;;3.22;2.40;;;14.60;99.90;;;;;;4993792;28;20022;-71
2021/05/14 06:58:43;;;;;;;4.35;1.50;;;14.70;99.90;;;;;;5007957;28;20523;-72
2021/05/14 07:01:09;;;;;;;3.13;2.25;;;14.70;99.90;;;;;;5008794;28;20116;-71
2021/05/14 07:03:35;;;;;;;4.70;2.25;;;14.80;99.90;;;;;;5007304;28;20014;-72
2021/05/14 07:06:00;;;;;;;2.38;2.05;;;15.00;99.90;;;;;;5005630;28;20400;-70
2021/05/14 07:08:26;;;;;;;2.05;1.83;;;15.20;99.90;;;;;;4995790;28;20093;-71
2021/05/14 07:10:54;;;;;;;3.08;1.92;;;15.40;99.90;;;;;;4993422;28;20384;-68
2021/05/14 07:13:20;;;;;;;3.80;2.63;;;15.40;99.90;;;;;;4996135;28;20034;-68
2021/05/14 07:15:48;;;;;;;5.15;1.90;;;15.60;99.90;;;;;;5006121;28;20030;-68
2021/05/14 07:18:14;;;;;;;5.07;2.20;;;15.70;99.90;;;;;;5011875;28;20670;-68
2021/05/14 07:20:39;;;;;;;1.98;1.40;;;15.80;99.90;;;;;;5008767;28;20030;-69
2021/05/14 07:23:05;;;;;;;2.70;1.30;;;15.80;99.90;;;;;;5011658;28;20176;-67
2021/05/14 07:25:31;;;;;;;2.05;1.30;;;15.70;99.90;;;;;;5010510;28;20555;-68
2021/05/14 07:27:57;;;;;;;4.65;1.08;;;15.70;99.90;;;;;;4994391;28;20030;-67
2021/05/14 07:30:23;;;;;;;1.00;1.00;;;15.80;99.90;;;;;;5010550;28;20377;-69
2021/05/14 07:32:48;;;;;;;3.65;1.60;;;15.90;99.90;;;;;;5010502;28;20034;-70
2021/05/14 07:35:14;;;;;;;3.53;1.52;;;16.10;99.90;;;;;;4994629;28;20037;-71
2021/05/14 07:37:41;;;;;;;4.15;1.55;;;16.10;99.90;;;;;;4994564;28;20029;-70
2021/05/14 07:40:07;;;;;;;3.60;1.50;;;16.20;99.90;;;;;;4988734;28;20046;-72
2021/05/14 07:42:33;;;;;;;3.22;1.77;;;16.50;99.90;;;;;;4994452;28;20030;-70
2021/05/14 07:44:59;;;;;;;3.00;1.30;;;16.60;99.90;;;;;;4994713;28;20088;-70
2021/05/14 07:47:27;;;;;;;1.85;1.17;;;16.70;99.90;;;;;;4993107;28;20022;-70
2021/05/14 07:49:53;;;;;;;4.47;1.48;;;16.80;99.90;;;;;;5008531;28;20038;-69
2021/05/14 07:52:19;;;;;;;1.92;1.30;;;16.80;99.90;;;;;;4986354;28;20029;-69
2021/05/14 07:54:45;;;;;;;3.97;1.55;;;16.70;99.90;;;;;;4994159;28;20065;-68
2021/05/14 07:57:11;;;;;;;6.00;2.03;;;16.70;99.90;;;;;;5011225;28;20088;-68
2021/05/14 07:59:37;;;;;;;8.30;2.33;;;16.70;99.90;;;;;;5010400;28;20029;-72
2021/05/14 08:02:03;;;;;;;5.15;2.65;;;16.80;99.90;;;;;;5000459;28;20038;-72
2021/05/14 08:04:40;;;;;;;2.47;1.70;;;16.90;99.90;;;;;;4995819;28;20033;-72
2021/05/14 08:07:09;;;;;;;2.55;1.42;;;16.90;99.90;;;;;;5003443;28;20022;-74
2021/05/14 08:09:35;;;;;;;2.45;2.17;;;16.80;99.90;;;;;;4992641;28;20057;-71
2021/05/14 08:12:05;;;;;;;3.15;1.60;;;16.80;99.90;;;;;;5005561;28;20049;-71
2021/05/14 08:14:31;;;;;;;2.95;1.70;;;16.90;99.90;;;;;;5005830;28;20026;-72
2021/05/14 08:16:57;;;;;;;2.53;1.35;;;16.90;99.90;;;;;;5006519;28;20555;-72
2021/05/14 08:19:24;;;;;;;3.42;1.40;;;16.70;99.90;;;;;;5005470;28;20022;-74
2021/05/14 08:21:50;;;;;;;2.63;1.45;;;16.60;99.90;;;;;;5006198;28;20034;-71
2021/05/14 08:24:16;;;;;;;3.65;2.28;;;16.60;99.90;;;;;;5007882;28;20384;-72
2021/05/14 08:26:42;;;;;;;2.63;2.05;;;16.70;99.90;;;;;;5008261;28;20022;-71
2021/05/14 08:29:16;;;;;;;4.07;3.53;;;16.60;99.90;;;;;;4989312;28;20021;-72
2021/05/14 08:31:42;;;;;;;4.88;2.97;;;16.60;99.90;;;;;;4991639;28;20432;-74
2021/05/14 08:34:09;;;;;;;5.05;2.78;;;16.60;99.90;;;;;;4988573;28;20037;-71
2021/05/14 08:36:35;;;;;;;3.17;2.88;;;16.70;99.90;;;;;;5006108;28;20583;-71
2021/05/14 08:39:02;;;;;;;3.38;2.97;;;16.60;99.90;;;;;;5003691;28;20065;-72
2021/05/14 08:41:28;;;;;;;2.03;1.90;;;16.70;99.90;;;;;;4988412;28;20033;-71
2021/05/14 08:43:56;;;;;;;3.58;3.28;;;16.90;99.90;;;;;;5004221;28;20045;-72
2021/05/14 08:46:25;;;;;;;3.63;2.85;;;16.90;99.90;;;;;;5003327;28;20088;-72
2021/05/14 08:48:55;;;;;;;2.80;1.80;;;16.80;99.90;;;;;;4989264;28;20029;-71
2021/05/14 08:51:27;;;;;;;3.33;1.60;;;16.90;99.90;;;;;;4988959;28;21722;-71
2021/05/14 08:53:53;;;;;;;2.17;1.52;;;16.90;99.90;;;;;;5004482;28;20026;-71
2021/05/14 08:56:20;;;;;;;3.72;2.15;;;17.00;99.90;;;;;;4995526;28;20026;-71
2021/05/14 08:58:46;;;;;;;3.55;2.53;;;17.20;99.90;;;;;;4991122;28;20161;-70
2021/05/14 09:01:11;;;;;;;3.13;1.90;;;17.40;99.90;;;;;;5003302;28;20436;-70
2021/05/14 09:04:05;;;;;;;3.47;1.15;;;17.70;99.90;;;;;;5004720;28;20030;-72
2021/05/14 09:06:33;;;;;;;2.13;1.40;;;18.10;99.90;;;;;;5002895;28;20037;-71
2021/05/14 09:09:06;;;;;;;1.02;0.95;;;18.10;99.90;;;;;;4988012;28;21780;-72
2021/05/14 09:11:36;;;;;;;1.63;1.02;;;18.30;99.90;;;;;;5004149;28;20018;-71
2021/05/14 09:14:03;;;;;;;3.03;1.20;;;18.50;99.90;;;;;;5004236;28;20041;-72
2021/05/14 09:16:43;;;;;;;1.30;1.20;;;18.50;99.90;;;;;;5002731;28;20058;-71
2021/05/14 09:19:11;;;;;;;3.78;1.13;;;18.50;99.90;;;;;;5005211;28;20022;-71
2021/05/14 09:21:38;;;;;;;2.08;1.88;;;18.50;99.90;;;;;;4988198;28;20030;-71
2021/05/14 09:24:05;;;;;;;2.75;1.50;;;18.40;99.90;;;;;;4990672;28;20115;-72
2021/05/14 09:26:32;;;;;;;3.28;1.48;;;18.20;99.90;;;;;;4990765;28;20419;-70
2021/05/14 09:28:58;;;;;;;1.45;1.13;;;18.10;99.90;;;;;;5011057;28;20107;-71
2021/05/14 09:31:28;;;;;;;2.35;1.15;;;18.20;99.90;;;;;;4989281;28;20099;-71
2021/05/14 09:33:56;;;;;;;3.22;1.48;;;18.10;99.90;;;;;;4992399;28;20129;-70
2021/05/14 09:36:23;;;;;;;2.83;1.10;;;18.00;99.90;;;;;;5006623;28;20089;-71
2021/05/14 09:38:53;;;;;;;2.35;1.10;;;18.00;99.90;;;;;;5010915;28;20037;-70
2021/05/14 09:41:31;;;;;;;2.25;0.88;;;18.30;99.90;;;;;;4992285;28;20032;-70
2021/05/14 09:44:04;;;;;;;3.25;1.23;;;18.40;99.90;;;;;;4994175;28;20049;-70
2021/05/14 09:46:34;;;;;;;1.40;1.30;;;18.70;99.90;;;;;;5005458;28;20060;-70
2021/05/14 09:49:13;;;;;;;1.90;1.10;;;18.90;99.90;;;;;;4985192;28;20037;-71
2021/05/14 09:51:45;;;;;;;2.63;1.30;;;18.80;99.90;;;;;;5009084;28;20026;-70
2021/05/14 09:54:42;;;;;;;1.73;1.10;;;18.50;99.90;;;;;;5006730;28;20079;-70
2021/05/14 09:57:17;;;;;;;2.53;1.23;;;18.30;99.90;;;;;;4990593;28;20034;-71
2021/05/14 09:59:44;;;;;;;4.35;1.50;;;18.40;99.90;;;;;;5008803;28;20053;-70
2021/05/14 10:02:26;;;;;;;4.25;1.00;;;18.40;99.90;;;;;;4992021;28;20049;-70
2021/05/14 10:04:52;;;;;;;3.30;1.05;;;18.40;99.90;;;;;;5011182;28;20492;-71
2021/05/14 10:07:19;;;;;;;2.78;1.15;;;18.40;99.90;;;;;;4992785;28;20484;-71
2021/05/14 10:09:49;;;;;;;1.15;1.00;;;18.00;99.90;;;;;;5008449;28;20104;-70
2021/05/14 10:12:15;;;;;;;2.42;1.27;;;17.70;99.90;;;;;;4991415;28;20112;-67
2021/05/14 10:14:43;;;;;;;3.88;1.23;;;17.70;99.90;;;;;;5009409;28;20112;-67
2021/05/14 10:17:09;;;;;;;4.60;1.50;;;17.60;99.90;;;;;;4989561;28;20033;-68
2021/05/14 10:19:36;;;;;;;5.22;1.00;;;17.60;99.90;;;;;;4987324;28;20038;-67
2021/05/14 10:22:04;;;;;;;1.50;0.88;;;17.80;99.90;;;;;;4988541;28;20042;-67
2021/05/14 10:24:47;;;;;;;5.18;3.90;;;17.70;99.90;;;;;;5009728;28;20077;-71
2021/05/14 10:27:17;;;;;;;5.80;4.90;;;17.70;99.90;;;;;;4984877;28;20112;-71
2021/05/14 10:29:45;;;;;;;2.90;1.60;;;17.70;99.90;;;;;;5012637;28;20109;-70
2021/05/14 10:32:14;;;;;;;1.13;0.82;;;17.70;99.90;;;;;;5011502;28;20480;-69
2021/05/14 10:34:40;;;;;;;1.77;1.27;;;17.50;99.90;;;;;;4996005;28;20033;-71
2021/05/14 10:37:06;;;;;;;1.67;1.05;;;17.50;99.90;;;;;;5014584;28;20724;-71
2021/05/14 10:39:40;;;;;;;2.40;1.10;;;17.30;99.90;;;;;;4991568;28;20038;-71
2021/05/14 10:42:11;;;;;;;0.80;0.80;;;17.20;99.90;;;;;;5007110;28;20034;-72
2021/05/14 10:44:43;;;;;;;2.05;1.05;;;17.30;99.90;;;;;;5013537;28;20054;-71
2021/05/14 10:47:21;;;;;;;3.90;1.40;;;17.30;99.90;;;;;;4994567;28;20022;-72
2021/05/14 10:49:54;;;;;;;4.18;0.93;;;17.50;99.90;;;;;;5014134;28;20026;-71
2021/05/14 10:52:20;;;;;;;4.05;1.58;;;17.60;99.90;;;;;;5005463;28;20046;-71
2021/05/14 10:54:46;;;;;;;7.32;1.92;;;17.80;99.90;;;;;;5012994;28;20523;-71
2021/05/14 10:57:34;;;;;;;2.30;1.20;;;18.10;99.90;;;;;;5009934;28;20096;-70
2021/05/14 11:00:23;;;;;;;4.18;1.70;;;18.00;99.90;;;;;;5010692;28;20057;-71
2021/05/14 11:03:13;;;;;;;1.58;1.00;;;18.00;99.90;;;;;;4993915;28;20050;-71
2021/05/14 11:05:49;;;;;;;4.00;1.15;;;18.00;99.90;;;;;;5008958;28;20033;-71
2021/05/14 11:08:33;;;;;;;6.28;1.58;;;17.90;99.90;;;;;;4994165;28;20030;-72
2021/05/14 11:11:02;;;;;;;3.70;1.38;;;17.80;99.90;;;;;;5016213;28;20460;-79
2021/05/14 11:13:38;;;;;;;3.95;1.80;;;17.80;99.90;;;;;;5022314;28;20383;-79
2021/05/14 11:16:35;;;;;;;2.05;1.27;;;17.70;99.90;;;;;;5005844;28;20037;-78
2021/05/14 11:19:28;;;;;;;5.70;1.52;;;17.70;99.90;;;;;;5004670;28;20392;-80
2021/05/14 11:22:16;;;;;;;1.52;1.23;;;17.90;99.90;;;;;;5022293;28;20484;-78
2021/05/14 11:25:00;;;;;;;4.68;1.35;;;18.00;99.90;;;;;;5017517;28;20033;-77
2021/05/14 11:27:36;;;;;;;3.53;1.23;;;18.00;99.90;;;;;;5015270;28;20523;-77
2021/05/14 11:30:04;;;;;;;3.20;1.05;;;18.00;99.90;;;;;;5016881;28;20045;-78
2021/05/14 11:32:32;;;;;;;5.20;1.85;;;18.00;99.90;;;;;;5017164;28;20084;-77
2021/05/14 11:35:00;;;;;;;2.80;1.60;;;18.10;99.90;;;;;;5013747;28;20025;-77
2021/05/14 11:37:51;;;;;;;4.28;2.03;;;18.00;99.90;;;;;;5009658;28;20022;-78
2021/05/14 11:40:22;;;;;;;8.80;1.25;;;18.10;99.90;;;;;;5004286;28;20042;-78
2021/05/14 11:42:52;;;;;;;1.90;1.55;;;18.20;99.90;;;;;;4995796;28;20046;-77
2021/05/14 11:45:33;;;;;;;7.13;1.55;;;18.30;99.90;;;;;;5007551;28;20017;-77
2021/05/14 11:48:01;;;;;;;2.72;1.60;;;18.30;99.90;;;;;;5012494;28;20033;-76
2021/05/14 11:50:32;;;;;;;2.55;1.55;;;18.40;99.90;;;;;;4996634;28;20106;-77
2021/05/14 11:53:00;;;;;;;4.80;1.42;;;18.40;99.90;;;;;;4995851;28;20104;-78
2021/05/14 11:55:27;;;;;;;2.83;2.00;;;18.40;99.90;;;;;;5012692;28;20026;-77
2021/05/14 11:57:57;;;;;;;2.35;1.73;;;18.40;99.90;;;;;;4992350;28;20030;-76
2021/05/14 12:00:31;;;;;;;3.92;1.23;;;18.40;99.90;;;;;;4989251;28;20034;-76
2021/05/14 12:02:59;;;;;;;1.35;0.70;;;18.40;99.90;;;;;;5012118;28;20026;-78
2021/05/14 12:05:25;;;;;;;1.52;1.27;;;18.50;99.90;;;;;;4998946;28;20029;-78
2021/05/14 12:07:52;;;;;;;4.68;1.70;;;18.40;99.90;;;;;;4995093;28;20045;-77
2021/05/14 12:10:19;;;;;;;1.38;1.00;;;18.60;99.90;;;;;;5010195;28;20034;-78
2021/05/14 12:12:47;;;;;;;1.27;0.98;;;18.70;99.90;;;;;;4995060;28;20033;-78
2021/05/14 12:15:21;;;;;;;1.08;0.93;;;18.70;99.90;;;;;;5004078;28;20018;-78
2021/05/14 12:17:58;;;;;;;1.65;0.93;;;18.90;99.90;;;;;;4992114;28;20069;-77
2021/05/14 12:20:26;;;;;;;2.83;0.65;;;19.10;99.90;;;;;;5005803;28;20026;-78
2021/05/14 12:22:57;;;;;;;2.45;1.13;;;19.20;99.90;;;;;;5005473;28;20037;-77
2021/05/14 12:25:24;;;;;;;1.25;0.57;;;19.30;99.90;;;;;;5000324;28;20501;-77
2021/05/14 12:27:50;;;;;;;1.23;0.63;;;19.30;99.90;;;;;;5008891;28;20065;-76
2021/05/14 12:30:17;;;;;;;0.30;0.30;;;19.40;99.90;;;;;;4993410;28;20487;-77
2021/05/14 12:32:57;;;;;;;0.40;0.40;;;19.40;99.90;;;;;;4994370;28;20014;-77
2021/05/14 12:35:23;;;;;;;3.08;1.17;;;19.50;99.90;;;;;;4994373;28;20472;-77
2021/05/14 12:38:07;;;;;;;3.10;1.10;;;19.40;99.90;;;;;;5011217;28;20058;-76
2021/05/14 12:40:39;;;;;;;1.92;1.13;;;19.50;99.90;;;;;;4999903;28;20096;-76
2021/05/14 12:43:09;;;;;;;0.90;0.70;;;19.50;99.90;;;;;;5011321;28;20056;-77
2021/05/14 12:45:36;;;;;;;2.90;0.85;;;19.30;99.90;;;;;;4992317;28;20026;-76
2021/05/14 12:48:06;;;;;;;1.40;1.20;;;19.20;99.90;;;;;;5003521;28;20022;-77
2021/05/14 12:50:33;;;;;;;0.50;0.45;;;19.30;99.90;;;;;;5004209;28;20026;-76
2021/05/14 12:52:59;;;;;;;1.65;0.68;;;19.30;99.90;;;;;;5010123;28;20511;-77
2021/05/14 12:55:25;;;;;;;0.60;0.60;;;19.30;99.90;;;;;;5004258;28;20496;-78